sensor_id;sensor_type;location;lat;lon;timestamp;temperature;humidity
14049;DHT22;7099;53.922;10.728;2023-05-07T00:00:28;10.00;77.40
14049;DHT22;7099;53.922;10.728;2023-05-07T00:04:35;10.00;77.30
14049;DHT22;7099;53.922;10.728;2023-05-07T00:08:43;10.00;77.20
14049;DHT22;7099;53.922;10.728;2023-05-07T00:12:48;10.00;77.20
14049;DHT22;7099;53.922;10.728;2023-05-07T00:16:55;10.00;77.10
14049;DHT22;7099;53.922;10.728;2023-05-07T00:21:01;10.00;77.10
14049;DHT22;7099;53.922;10.728;2023-05-07T00:25:08;10.00;76.90
14049;DHT22;7099;53.922;10.728;2023-05-07T00:29:15;10.00;77.00
14049;DHT22;7099;53.922;10.728;2023-05-07T00:33:21;10.00;76.90
14049;DHT22;7099;53.922;10.728;2023-05-07T00:37:27;10.00;76.90
14049;DHT22;7099;53.922;10.728;2023-05-07T00:41:32;10.00;76.70
14049;DHT22;7099;53.922;10.728;2023-05-07T00:45:38;10.00;76.70
14049;DHT22;7099;53.922;10.728;2023-05-07T00:49:44;9.90;76.80
14049;DHT22;7099;53.922;10.728;2023-05-07T00:53:51;9.90;76.80
14049;DHT22;7099;53.922;10.728;2023-05-07T00:57:57;9.90;76.90
14049;DHT22;7099;53.922;10.728;2023-05-07T01:02:04;9.90;76.80
14049;DHT22;7099;53.922;10.728;2023-05-07T01:06:10;9.90;76.60
14049;DHT22;7099;53.922;10.728;2023-05-07T01:10:19;9.90;76.50
14049;DHT22;7099;53.922;10.728;2023-05-07T01:14:24;9.90;76.50
14049;DHT22;7099;53.922;10.728;2023-05-07T01:18:31;9.90;76.50
14049;DHT22;7099;53.922;10.728;2023-05-07T01:22:38;9.80;76.50
14049;DHT22;7099;53.922;10.728;2023-05-07T01:26:44;9.80;76.50
14049;DHT22;7099;53.922;10.728;2023-05-07T01:30:53;9.80;76.40
14049;DHT22;7099;53.922;10.728;2023-05-07T01:35:03;9.90;76.30
14049;DHT22;7099;53.922;10.728;2023-05-07T01:39:11;9.90;76.30
14049;DHT22;7099;53.922;10.728;2023-05-07T01:43:19;9.90;76.20
14049;DHT22;7099;53.922;10.728;2023-05-07T01:47:25;9.80;76.10
14049;DHT22;7099;53.922;10.728;2023-05-07T01:51:33;9.90;76.20
14049;DHT22;7099;53.922;10.728;2023-05-07T01:55:39;9.90;76.00
14049;DHT22;7099;53.922;10.728;2023-05-07T01:59:45;9.80;76.20
14049;DHT22;7099;53.922;10.728;2023-05-07T02:03:51;9.80;76.00
14049;DHT22;7099;53.922;10.728;2023-05-07T02:07:57;9.80;75.90
14049;DHT22;7099;53.922;10.728;2023-05-07T02:12:03;9.90;75.80
14049;DHT22;7099;53.922;10.728;2023-05-07T02:16:09;9.90;75.70
14049;DHT22;7099;53.922;10.728;2023-05-07T02:20:16;9.90;75.60
14049;DHT22;7099;53.922;10.728;2023-05-07T02:24:21;9.90;75.60
14049;DHT22;7099;53.922;10.728;2023-05-07T02:28:27;9.90;75.50
14049;DHT22;7099;53.922;10.728;2023-05-07T02:32:32;9.90;75.50
14049;DHT22;7099;53.922;10.728;2023-05-07T02:36:38;9.90;75.60
14049;DHT22;7099;53.922;10.728;2023-05-07T02:40:44;9.90;75.50
14049;DHT22;7099;53.922;10.728;2023-05-07T02:44:49;9.90;75.40
14049;DHT22;7099;53.922;10.728;2023-05-07T02:48:55;9.90;75.50
14049;DHT22;7099;53.922;10.728;2023-05-07T02:53:01;9.90;75.50
14049;DHT22;7099;53.922;10.728;2023-05-07T02:57:06;9.90;75.40
14049;DHT22;7099;53.922;10.728;2023-05-07T03:01:13;9.90;75.30
14049;DHT22;7099;53.922;10.728;2023-05-07T03:05:19;9.80;75.30
14049;DHT22;7099;53.922;10.728;2023-05-07T03:09:26;9.80;75.20
14049;DHT22;7099;53.922;10.728;2023-05-07T03:13:32;9.80;75.30
14049;DHT22;7099;53.922;10.728;2023-05-07T03:17:38;9.80;75.30
14049;DHT22;7099;53.922;10.728;2023-05-07T03:21:44;9.80;75.20
14049;DHT22;7099;53.922;10.728;2023-05-07T03:25:49;9.80;75.20
14049;DHT22;7099;53.922;10.728;2023-05-07T03:29:56;9.70;75.20
14049;DHT22;7099;53.922;10.728;2023-05-07T03:34:02;9.80;75.20
14049;DHT22;7099;53.922;10.728;2023-05-07T03:38:07;9.80;75.10
14049;DHT22;7099;53.922;10.728;2023-05-07T03:42:13;9.80;75.00
14049;DHT22;7099;53.922;10.728;2023-05-07T03:46:19;9.80;74.90
14049;DHT22;7099;53.922;10.728;2023-05-07T03:50:26;9.80;74.80
14049;DHT22;7099;53.922;10.728;2023-05-07T03:54:32;9.80;74.90
14049;DHT22;7099;53.922;10.728;2023-05-07T03:58:38;9.80;74.80
14049;DHT22;7099;53.922;10.728;2023-05-07T04:02:43;9.80;74.80
14049;DHT22;7099;53.922;10.728;2023-05-07T04:06:49;9.80;74.60
14049;DHT22;7099;53.922;10.728;2023-05-07T04:10:56;9.80;74.90
14049;DHT22;7099;53.922;10.728;2023-05-07T04:15:02;9.80;74.90
14049;DHT22;7099;53.922;10.728;2023-05-07T04:19:08;9.80;75.00
14049;DHT22;7099;53.922;10.728;2023-05-07T04:23:14;9.80;74.80
14049;DHT22;7099;53.922;10.728;2023-05-07T04:27:19;9.80;74.70
14049;DHT22;7099;53.922;10.728;2023-05-07T04:31:25;9.80;74.70
14049;DHT22;7099;53.922;10.728;2023-05-07T04:35:32;9.90;74.70
14049;DHT22;7099;53.922;10.728;2023-05-07T04:39:38;9.90;74.60
14049;DHT22;7099;53.922;10.728;2023-05-07T04:43:44;9.90;74.60
14049;DHT22;7099;53.922;10.728;2023-05-07T04:47:49;10.00;74.60
14049;DHT22;7099;53.922;10.728;2023-05-07T04:51:55;9.90;74.60
14049;DHT22;7099;53.922;10.728;2023-05-07T04:56:01;10.00;74.80
14049;DHT22;7099;53.922;10.728;2023-05-07T05:00:07;9.90;74.80
14049;DHT22;7099;53.922;10.728;2023-05-07T05:04:14;9.90;74.80
14049;DHT22;7099;53.922;10.728;2023-05-07T05:08:20;9.90;74.90
14049;DHT22;7099;53.922;10.728;2023-05-07T05:12:25;10.00;74.90
14049;DHT22;7099;53.922;10.728;2023-05-07T05:16:31;10.00;74.80
14049;DHT22;7099;53.922;10.728;2023-05-07T05:20:38;10.10;74.90
14049;DHT22;7099;53.922;10.728;2023-05-07T05:24:43;10.10;74.80
14049;DHT22;7099;53.922;10.728;2023-05-07T05:28:49;10.10;74.80
14049;DHT22;7099;53.922;10.728;2023-05-07T05:32:55;10.10;74.70
14049;DHT22;7099;53.922;10.728;2023-05-07T05:37:01;10.20;74.40
14049;DHT22;7099;53.922;10.728;2023-05-07T05:41:06;10.20;74.40
14049;DHT22;7099;53.922;10.728;2023-05-07T05:45:12;10.20;74.40
14049;DHT22;7099;53.922;10.728;2023-05-07T05:49:18;10.20;74.30
14049;DHT22;7099;53.922;10.728;2023-05-07T05:53:23;10.20;74.20
14049;DHT22;7099;53.922;10.728;2023-05-07T05:57:29;10.20;74.20
14049;DHT22;7099;53.922;10.728;2023-05-07T06:01:35;10.30;74.40
14049;DHT22;7099;53.922;10.728;2023-05-07T06:05:40;10.40;74.40
14049;DHT22;7099;53.922;10.728;2023-05-07T06:09:47;10.40;74.20
14049;DHT22;7099;53.922;10.728;2023-05-07T06:13:54;10.50;74.20
14049;DHT22;7099;53.922;10.728;2023-05-07T06:18:00;10.60;74.20
14049;DHT22;7099;53.922;10.728;2023-05-07T06:22:05;10.70;74.10
14049;DHT22;7099;53.922;10.728;2023-05-07T06:26:11;10.80;74.00
14049;DHT22;7099;53.922;10.728;2023-05-07T06:30:17;10.90;73.40
14049;DHT22;7099;53.922;10.728;2023-05-07T06:34:22;11.00;73.60
14049;DHT22;7099;53.922;10.728;2023-05-07T06:38:28;11.10;73.40
14049;DHT22;7099;53.922;10.728;2023-05-07T06:42:33;11.20;72.50
14049;DHT22;7099;53.922;10.728;2023-05-07T06:46:39;11.30;72.20
14049;DHT22;7099;53.922;10.728;2023-05-07T06:50:45;11.40;71.60
14049;DHT22;7099;53.922;10.728;2023-05-07T06:54:50;11.40;71.00
14049;DHT22;7099;53.922;10.728;2023-05-07T06:58:56;11.60;71.20
14049;DHT22;7099;53.922;10.728;2023-05-07T07:03:02;11.60;70.50
14049;DHT22;7099;53.922;10.728;2023-05-07T07:07:08;11.60;70.50
14049;DHT22;7099;53.922;10.728;2023-05-07T07:11:14;11.80;70.40
14049;DHT22;7099;53.922;10.728;2023-05-07T07:15:20;11.80;70.30
14049;DHT22;7099;53.922;10.728;2023-05-07T07:19:26;11.90;69.80
14049;DHT22;7099;53.922;10.728;2023-05-07T07:23:32;11.90;69.90
14049;DHT22;7099;53.922;10.728;2023-05-07T07:27:38;12.00;69.10
14049;DHT22;7099;53.922;10.728;2023-05-07T07:31:45;12.00;68.30
14049;DHT22;7099;53.922;10.728;2023-05-07T07:35:52;12.10;68.40
14049;DHT22;7099;53.922;10.728;2023-05-07T07:39:57;12.10;68.60
14049;DHT22;7099;53.922;10.728;2023-05-07T07:44:03;12.20;68.50
14049;DHT22;7099;53.922;10.728;2023-05-07T07:48:12;12.30;68.30
14049;DHT22;7099;53.922;10.728;2023-05-07T07:52:18;12.30;68.40
14049;DHT22;7099;53.922;10.728;2023-05-07T07:56:24;12.40;68.20
14049;DHT22;7099;53.922;10.728;2023-05-07T08:00:31;12.60;68.00
14049;DHT22;7099;53.922;10.728;2023-05-07T08:04:36;12.60;67.10
14049;DHT22;7099;53.922;10.728;2023-05-07T08:08:43;12.60;66.80
14049;DHT22;7099;53.922;10.728;2023-05-07T08:12:49;12.60;66.60
14049;DHT22;7099;53.922;10.728;2023-05-07T08:16:55;12.70;67.00
14049;DHT22;7099;53.922;10.728;2023-05-07T08:21:01;12.90;67.20
14049;DHT22;7099;53.922;10.728;2023-05-07T08:25:07;13.10;67.10
14049;DHT22;7099;53.922;10.728;2023-05-07T08:29:13;13.30;66.50
14049;DHT22;7099;53.922;10.728;2023-05-07T08:33:18;13.50;65.50
14049;DHT22;7099;53.922;10.728;2023-05-07T08:37:24;13.70;66.20
14049;DHT22;7099;53.922;10.728;2023-05-07T08:41:30;13.90;65.10
14049;DHT22;7099;53.922;10.728;2023-05-07T08:45:39;13.90;65.00
14049;DHT22;7099;53.922;10.728;2023-05-07T08:49:46;14.10;64.60
14049;DHT22;7099;53.922;10.728;2023-05-07T08:53:51;14.10;64.00
14049;DHT22;7099;53.922;10.728;2023-05-07T08:57:57;14.20;63.70
14049;DHT22;7099;53.922;10.728;2023-05-07T09:02:02;14.40;63.70
14049;DHT22;7099;53.922;10.728;2023-05-07T09:06:08;14.70;63.30
14049;DHT22;7099;53.922;10.728;2023-05-07T09:10:13;14.90;63.40
14049;DHT22;7099;53.922;10.728;2023-05-07T09:14:21;15.10;62.20
14049;DHT22;7099;53.922;10.728;2023-05-07T09:18:27;15.20;62.20
14049;DHT22;7099;53.922;10.728;2023-05-07T09:22:33;15.30;62.30
14049;DHT22;7099;53.922;10.728;2023-05-07T09:26:39;15.50;61.50
14049;DHT22;7099;53.922;10.728;2023-05-07T09:30:45;15.60;61.10
14049;DHT22;7099;53.922;10.728;2023-05-07T09:34:50;15.70;59.90
14049;DHT22;7099;53.922;10.728;2023-05-07T09:38:59;15.70;60.70
14049;DHT22;7099;53.922;10.728;2023-05-07T09:43:10;15.80;59.40
14049;DHT22;7099;53.922;10.728;2023-05-07T09:47:19;15.70;58.70
14049;DHT22;7099;53.922;10.728;2023-05-07T09:51:45;15.60;59.40
14049;DHT22;7099;53.922;10.728;2023-05-07T09:55:54;15.80;59.10
14049;DHT22;7099;53.922;10.728;2023-05-07T10:00:02;16.00;59.00
14049;DHT22;7099;53.922;10.728;2023-05-07T10:04:10;16.20;59.80
14049;DHT22;7099;53.922;10.728;2023-05-07T10:08:17;16.50;59.00
14049;DHT22;7099;53.922;10.728;2023-05-07T10:12:25;16.70;58.40
14049;DHT22;7099;53.922;10.728;2023-05-07T10:16:32;16.70;58.10
14049;DHT22;7099;53.922;10.728;2023-05-07T10:20:41;17.00;58.50
14049;DHT22;7099;53.922;10.728;2023-05-07T10:24:49;17.10;58.10
14049;DHT22;7099;53.922;10.728;2023-05-07T10:29:03;17.20;56.80
14049;DHT22;7099;53.922;10.728;2023-05-07T10:33:14;17.20;55.80
14049;DHT22;7099;53.922;10.728;2023-05-07T10:37:21;17.40;56.70
14049;DHT22;7099;53.922;10.728;2023-05-07T10:41:28;17.40;56.60
14049;DHT22;7099;53.922;10.728;2023-05-07T10:45:33;17.50;56.10
14049;DHT22;7099;53.922;10.728;2023-05-07T10:58:29;17.80;55.20
14049;DHT22;7099;53.922;10.728;2023-05-07T11:11:14;17.80;55.00
14049;DHT22;7099;53.922;10.728;2023-05-07T11:15:39;18.00;54.20
14049;DHT22;7099;53.922;10.728;2023-05-07T11:19:54;18.20;54.40
14049;DHT22;7099;53.922;10.728;2023-05-07T11:24:01;18.30;54.70
14049;DHT22;7099;53.922;10.728;2023-05-07T11:28:11;18.60;55.10
14049;DHT22;7099;53.922;10.728;2023-05-07T11:32:23;18.70;54.70
14049;DHT22;7099;53.922;10.728;2023-05-07T11:36:42;18.90;53.10
14049;DHT22;7099;53.922;10.728;2023-05-07T11:40:53;18.90;52.70
14049;DHT22;7099;53.922;10.728;2023-05-07T11:45:01;19.00;51.90
14049;DHT22;7099;53.922;10.728;2023-05-07T11:49:08;19.10;52.90
14049;DHT22;7099;53.922;10.728;2023-05-07T11:53:14;19.30;51.70
14049;DHT22;7099;53.922;10.728;2023-05-07T11:57:22;19.40;51.80
14049;DHT22;7099;53.922;10.728;2023-05-07T12:01:29;19.30;50.60
14049;DHT22;7099;53.922;10.728;2023-05-07T12:05:34;19.30;50.70
14049;DHT22;7099;53.922;10.728;2023-05-07T12:09:40;19.40;51.30
14049;DHT22;7099;53.922;10.728;2023-05-07T12:13:46;19.50;50.30
14049;DHT22;7099;53.922;10.728;2023-05-07T12:17:52;19.70;50.60
14049;DHT22;7099;53.922;10.728;2023-05-07T12:21:59;19.80;50.30
14049;DHT22;7099;53.922;10.728;2023-05-07T12:26:05;19.90;49.40
14049;DHT22;7099;53.922;10.728;2023-05-07T12:30:12;19.90;51.20
14049;DHT22;7099;53.922;10.728;2023-05-07T12:34:18;20.10;50.00
14049;DHT22;7099;53.922;10.728;2023-05-07T12:38:24;20.30;50.20
14049;DHT22;7099;53.922;10.728;2023-05-07T12:42:35;20.30;48.30
14049;DHT22;7099;53.922;10.728;2023-05-07T12:46:44;20.00;48.00
14049;DHT22;7099;53.922;10.728;2023-05-07T12:50:53;20.00;48.20
14049;DHT22;7099;53.922;10.728;2023-05-07T12:55:05;20.10;48.00
14049;DHT22;7099;53.922;10.728;2023-05-07T12:59:14;20.20;49.30
14049;DHT22;7099;53.922;10.728;2023-05-07T13:03:31;20.20;49.10
14049;DHT22;7099;53.922;10.728;2023-05-07T13:07:37;20.20;47.50
14049;DHT22;7099;53.922;10.728;2023-05-07T13:11:44;20.10;48.10
14049;DHT22;7099;53.922;10.728;2023-05-07T13:15:49;20.10;48.00
14049;DHT22;7099;53.922;10.728;2023-05-07T13:19:55;20.10;48.30
14049;DHT22;7099;53.922;10.728;2023-05-07T13:24:00;20.10;49.20
14049;DHT22;7099;53.922;10.728;2023-05-07T13:28:06;19.90;47.30
14049;DHT22;7099;53.922;10.728;2023-05-07T13:32:15;19.80;48.50
14049;DHT22;7099;53.922;10.728;2023-05-07T13:36:22;20.00;48.30
14049;DHT22;7099;53.922;10.728;2023-05-07T13:40:27;20.20;48.60
14049;DHT22;7099;53.922;10.728;2023-05-07T13:44:33;20.20;48.70
14049;DHT22;7099;53.922;10.728;2023-05-07T13:48:38;20.40;48.50
14049;DHT22;7099;53.922;10.728;2023-05-07T13:52:44;20.40;47.20
14049;DHT22;7099;53.922;10.728;2023-05-07T13:56:56;20.60;48.70
14049;DHT22;7099;53.922;10.728;2023-05-07T14:01:02;20.70;47.00
14049;DHT22;7099;53.922;10.728;2023-05-07T14:05:07;20.40;46.80
14049;DHT22;7099;53.922;10.728;2023-05-07T14:09:16;20.30;46.90
14049;DHT22;7099;53.922;10.728;2023-05-07T14:13:23;20.20;47.60
14049;DHT22;7099;53.922;10.728;2023-05-07T14:17:29;20.30;47.50
14049;DHT22;7099;53.922;10.728;2023-05-07T14:21:35;20.20;47.40
14049;DHT22;7099;53.922;10.728;2023-05-07T14:25:40;20.40;46.80
14049;DHT22;7099;53.922;10.728;2023-05-07T14:29:48;20.60;46.50
14049;DHT22;7099;53.922;10.728;2023-05-07T14:33:56;20.70;46.10
14049;DHT22;7099;53.922;10.728;2023-05-07T14:38:03;20.50;45.80
14049;DHT22;7099;53.922;10.728;2023-05-07T14:42:08;20.30;46.40
14049;DHT22;7099;53.922;10.728;2023-05-07T14:46:14;20.70;45.90
14049;DHT22;7099;53.922;10.728;2023-05-07T14:50:20;20.70;46.50
14049;DHT22;7099;53.922;10.728;2023-05-07T14:54:26;20.60;46.50
14049;DHT22;7099;53.922;10.728;2023-05-07T14:58:32;20.50;46.90
14049;DHT22;7099;53.922;10.728;2023-05-07T15:02:37;20.30;47.20
14049;DHT22;7099;53.922;10.728;2023-05-07T15:06:43;20.10;46.00
14049;DHT22;7099;53.922;10.728;2023-05-07T15:10:49;20.00;46.30
14049;DHT22;7099;53.922;10.728;2023-05-07T15:14:55;19.80;46.30
14049;DHT22;7099;53.922;10.728;2023-05-07T15:19:01;19.60;46.40
14049;DHT22;7099;53.922;10.728;2023-05-07T15:23:07;19.50;46.30
14049;DHT22;7099;53.922;10.728;2023-05-07T15:27:18;19.50;46.60
14049;DHT22;7099;53.922;10.728;2023-05-07T15:31:24;19.60;46.70
14049;DHT22;7099;53.922;10.728;2023-05-07T15:35:30;19.60;46.20
14049;DHT22;7099;53.922;10.728;2023-05-07T15:39:36;19.40;46.30
14049;DHT22;7099;53.922;10.728;2023-05-07T15:43:48;19.20;46.90
14049;DHT22;7099;53.922;10.728;2023-05-07T15:47:55;19.20;46.60
14049;DHT22;7099;53.922;10.728;2023-05-07T15:52:01;19.10;47.30
14049;DHT22;7099;53.922;10.728;2023-05-07T15:56:07;19.20;46.70
14049;DHT22;7099;53.922;10.728;2023-05-07T16:00:13;19.00;46.30
14049;DHT22;7099;53.922;10.728;2023-05-07T16:04:21;19.20;46.60
14049;DHT22;7099;53.922;10.728;2023-05-07T16:08:27;19.60;47.00
14049;DHT22;7099;53.922;10.728;2023-05-07T16:12:32;20.10;45.60
14049;DHT22;7099;53.922;10.728;2023-05-07T16:16:38;20.50;44.90
14049;DHT22;7099;53.922;10.728;2023-05-07T16:20:45;20.60;44.90
14049;DHT22;7099;53.922;10.728;2023-05-07T16:24:51;20.80;45.60
14049;DHT22;7099;53.922;10.728;2023-05-07T16:28:57;21.10;44.80
14049;DHT22;7099;53.922;10.728;2023-05-07T16:33:03;21.30;44.70
14049;DHT22;7099;53.922;10.728;2023-05-07T16:37:08;21.50;43.80
14049;DHT22;7099;53.922;10.728;2023-05-07T16:41:14;21.60;42.90
14049;DHT22;7099;53.922;10.728;2023-05-07T16:45:20;21.70;43.40
14049;DHT22;7099;53.922;10.728;2023-05-07T16:49:27;21.70;42.90
14049;DHT22;7099;53.922;10.728;2023-05-07T16:53:33;21.90;42.70
14049;DHT22;7099;53.922;10.728;2023-05-07T16:57:40;21.80;42.40
14049;DHT22;7099;53.922;10.728;2023-05-07T17:01:45;21.70;41.70
14049;DHT22;7099;53.922;10.728;2023-05-07T17:05:51;21.50;41.10
14049;DHT22;7099;53.922;10.728;2023-05-07T17:09:57;21.30;41.20
14049;DHT22;7099;53.922;10.728;2023-05-07T17:14:02;21.50;42.10
14049;DHT22;7099;53.922;10.728;2023-05-07T17:18:09;21.60;41.40
14049;DHT22;7099;53.922;10.728;2023-05-07T17:22:15;21.70;41.60
14049;DHT22;7099;53.922;10.728;2023-05-07T17:26:21;21.50;41.20
14049;DHT22;7099;53.922;10.728;2023-05-07T17:30:26;21.30;41.50
14049;DHT22;7099;53.922;10.728;2023-05-07T17:34:32;21.30;41.50
14049;DHT22;7099;53.922;10.728;2023-05-07T17:38:37;21.10;41.90
14049;DHT22;7099;53.922;10.728;2023-05-07T17:42:43;20.80;42.10
14049;DHT22;7099;53.922;10.728;2023-05-07T17:46:48;20.80;42.60
14049;DHT22;7099;53.922;10.728;2023-05-07T17:51:00;20.70;42.40
14049;DHT22;7099;53.922;10.728;2023-05-07T17:55:07;20.50;42.70
14049;DHT22;7099;53.922;10.728;2023-05-07T17:59:14;20.40;43.20
14049;DHT22;7099;53.922;10.728;2023-05-07T18:03:20;20.20;43.20
14049;DHT22;7099;53.922;10.728;2023-05-07T18:07:25;20.10;43.50
14049;DHT22;7099;53.922;10.728;2023-05-07T18:11:31;19.90;43.70
14049;DHT22;7099;53.922;10.728;2023-05-07T18:15:37;19.70;44.00
14049;DHT22;7099;53.922;10.728;2023-05-07T18:19:43;19.60;44.40
14049;DHT22;7099;53.922;10.728;2023-05-07T18:23:49;19.50;45.00
14049;DHT22;7099;53.922;10.728;2023-05-07T18:27:55;19.30;45.10
14049;DHT22;7099;53.922;10.728;2023-05-07T18:32:01;19.10;45.70
14049;DHT22;7099;53.922;10.728;2023-05-07T18:36:07;19.00;46.10
14049;DHT22;7099;53.922;10.728;2023-05-07T18:40:12;18.80;46.40
14049;DHT22;7099;53.922;10.728;2023-05-07T18:44:21;18.60;46.60
14049;DHT22;7099;53.922;10.728;2023-05-07T18:48:27;18.50;46.90
14049;DHT22;7099;53.922;10.728;2023-05-07T18:52:32;18.40;47.20
14049;DHT22;7099;53.922;10.728;2023-05-07T18:56:39;18.30;47.70
14049;DHT22;7099;53.922;10.728;2023-05-07T19:00:46;18.20;47.80
14049;DHT22;7099;53.922;10.728;2023-05-07T19:04:52;18.20;48.40
14049;DHT22;7099;53.922;10.728;2023-05-07T19:08:58;18.00;48.40
14049;DHT22;7099;53.922;10.728;2023-05-07T19:13:04;17.90;48.80
14049;DHT22;7099;53.922;10.728;2023-05-07T19:17:09;17.80;48.90
14049;DHT22;7099;53.922;10.728;2023-05-07T19:21:17;17.60;49.60
14049;DHT22;7099;53.922;10.728;2023-05-07T19:25:22;17.40;49.40
14049;DHT22;7099;53.922;10.728;2023-05-07T19:29:28;17.30;49.50
14049;DHT22;7099;53.922;10.728;2023-05-07T19:33:33;17.20;49.80
14049;DHT22;7099;53.922;10.728;2023-05-07T19:37:39;17.00;50.00
14049;DHT22;7099;53.922;10.728;2023-05-07T19:41:45;16.80;50.50
14049;DHT22;7099;53.922;10.728;2023-05-07T19:45:51;16.70;51.10
14049;DHT22;7099;53.922;10.728;2023-05-07T19:50:00;16.50;51.40
14049;DHT22;7099;53.922;10.728;2023-05-07T19:54:05;16.40;52.30
14049;DHT22;7099;53.922;10.728;2023-05-07T19:58:12;16.10;52.10
14049;DHT22;7099;53.922;10.728;2023-05-07T20:02:20;15.90;52.40
14049;DHT22;7099;53.922;10.728;2023-05-07T20:06:26;15.80;52.60
14049;DHT22;7099;53.922;10.728;2023-05-07T20:10:32;15.60;53.00
14049;DHT22;7099;53.922;10.728;2023-05-07T20:14:37;15.50;53.10
14049;DHT22;7099;53.922;10.728;2023-05-07T20:18:43;15.40;53.50
14049;DHT22;7099;53.922;10.728;2023-05-07T20:22:49;15.20;53.60
14049;DHT22;7099;53.922;10.728;2023-05-07T20:26:54;15.10;53.90
14049;DHT22;7099;53.922;10.728;2023-05-07T20:31:00;15.00;54.20
14049;DHT22;7099;53.922;10.728;2023-05-07T20:35:05;14.90;54.50
14049;DHT22;7099;53.922;10.728;2023-05-07T20:39:11;14.70;54.80
14049;DHT22;7099;53.922;10.728;2023-05-07T20:43:20;14.50;54.70
14049;DHT22;7099;53.922;10.728;2023-05-07T20:47:26;14.40;55.10
14049;DHT22;7099;53.922;10.728;2023-05-07T20:51:32;14.20;55.60
14049;DHT22;7099;53.922;10.728;2023-05-07T20:55:37;14.10;55.80
14049;DHT22;7099;53.922;10.728;2023-05-07T20:59:43;14.00;56.10
14049;DHT22;7099;53.922;10.728;2023-05-07T21:03:49;13.80;56.10
14049;DHT22;7099;53.922;10.728;2023-05-07T21:07:58;13.80;56.30
14049;DHT22;7099;53.922;10.728;2023-05-07T21:12:03;13.60;56.40
14049;DHT22;7099;53.922;10.728;2023-05-07T21:16:09;13.50;56.50
14049;DHT22;7099;53.922;10.728;2023-05-07T21:20:15;13.40;56.70
14049;DHT22;7099;53.922;10.728;2023-05-07T21:24:21;13.30;56.70
14049;DHT22;7099;53.922;10.728;2023-05-07T21:28:26;13.20;56.60
14049;DHT22;7099;53.922;10.728;2023-05-07T21:32:32;13.10;56.50
14049;DHT22;7099;53.922;10.728;2023-05-07T21:36:38;13.00;56.60
14049;DHT22;7099;53.922;10.728;2023-05-07T21:40:43;12.90;56.80
14049;DHT22;7099;53.922;10.728;2023-05-07T21:44:49;12.80;56.70
14049;DHT22;7099;53.922;10.728;2023-05-07T21:48:55;12.70;56.80
14049;DHT22;7099;53.922;10.728;2023-05-07T21:53:00;12.60;56.80
14049;DHT22;7099;53.922;10.728;2023-05-07T21:57:06;12.50;56.90
14049;DHT22;7099;53.922;10.728;2023-05-07T22:01:12;12.50;56.90
14049;DHT22;7099;53.922;10.728;2023-05-07T22:05:18;12.40;57.00
14049;DHT22;7099;53.922;10.728;2023-05-07T22:09:23;12.40;57.10
14049;DHT22;7099;53.922;10.728;2023-05-07T22:13:29;12.30;57.10
14049;DHT22;7099;53.922;10.728;2023-05-07T22:17:35;12.30;57.20
14049;DHT22;7099;53.922;10.728;2023-05-07T22:21:40;12.20;57.20
14049;DHT22;7099;53.922;10.728;2023-05-07T22:25:46;12.10;57.30
14049;DHT22;7099;53.922;10.728;2023-05-07T22:29:51;12.10;57.40
14049;DHT22;7099;53.922;10.728;2023-05-07T22:33:57;12.00;57.40
14049;DHT22;7099;53.922;10.728;2023-05-07T22:38:03;11.90;57.60
14049;DHT22;7099;53.922;10.728;2023-05-07T22:42:09;11.90;57.70
14049;DHT22;7099;53.922;10.728;2023-05-07T22:46:14;11.80;57.80
14049;DHT22;7099;53.922;10.728;2023-05-07T22:50:20;11.80;58.00
14049;DHT22;7099;53.922;10.728;2023-05-07T22:54:26;11.70;58.10
14049;DHT22;7099;53.922;10.728;2023-05-07T22:58:32;11.70;58.30
14049;DHT22;7099;53.922;10.728;2023-05-07T23:02:38;11.60;58.40
14049;DHT22;7099;53.922;10.728;2023-05-07T23:06:43;11.50;58.60
14049;DHT22;7099;53.922;10.728;2023-05-07T23:10:49;11.50;58.90
14049;DHT22;7099;53.922;10.728;2023-05-07T23:14:54;11.40;59.00
14049;DHT22;7099;53.922;10.728;2023-05-07T23:19:00;11.40;59.20
14049;DHT22;7099;53.922;10.728;2023-05-07T23:23:06;11.30;59.30
14049;DHT22;7099;53.922;10.728;2023-05-07T23:27:11;11.20;60.10
14049;DHT22;7099;53.922;10.728;2023-05-07T23:31:17;11.20;59.70
14049;DHT22;7099;53.922;10.728;2023-05-07T23:35:23;11.20;59.80
14049;DHT22;7099;53.922;10.728;2023-05-07T23:39:29;11.20;60.00
14049;DHT22;7099;53.922;10.728;2023-05-07T23:43:35;11.10;60.10
14049;DHT22;7099;53.922;10.728;2023-05-07T23:47:40;11.10;60.30
14049;DHT22;7099;53.922;10.728;2023-05-07T23:51:46;11.00;60.50
14049;DHT22;7099;53.922;10.728;2023-05-07T23:55:52;11.00;60.50
14049;DHT22;7099;53.922;10.728;2023-05-07T23:59:57;11.00;60.70
